CheckWX is a tool to help pilots better visualize weather data.  It is not intended as a substitute for an official pre-flight weather briefing.

13:32:18 UTC

EBBE TAF
Beauvechain Air Base Airport
Beauvechain, Belgium
TAF EBBE 131141Z 1313/1322 24015KT 9999 SCT012 SCT017 BKN025 TEMPO 1313/1322 24015G25KT 7000 -SHRA SCT008 SCT015TCU BKN020 TEMPO 1313/1320 24020G30KT 3000 SHRA SCT006 SCT012TCU BKN015 PROB30 TEMPO 1313/1318 24025G35KT 1500 +SHRA SCT004 BKN010CB BKN012

Dec-13@
13:00 UTC

Dec-13 @ 13:00 UTC

Dec-13@
22:00 UTC

Dec-13 @ 22:00 UTC

TAF EBBE 131141Z 1313/1322 24015KT 9999 SCT012 SCT017 BKN025
Wind
  • 240° at 15 KTS
Cloud Levels
  • Scattered at 1,200' AGL
  • Scattered at 1,700' AGL
  • Broken at 2,500' AGL

Dec-13@
13:00 UTC

Dec-13 @ 13:00 UTC

Dec-13@
18:00 UTC

Dec-13 @ 18:00 UTC

PROB30 TEMPO 1313/1318 24025G35KT 1500 +SHRA SCT004 BKN010CB BKN012

Temporary - 30% Likelihood

Temporary - 30% Likelihood during this time.

Wind
  • 240° at 25 KTS
  • {Gusting to 35 KTS
Conditions
Heavy Rain
Cloud Levels
  • Scattered at 400' AGL
  • Broken at 1,000' AGL
  • Broken at 1,200' AGL

Dec-13@
13:00 UTC

Dec-13 @ 13:00 UTC

Dec-13@
20:00 UTC

Dec-13 @ 20:00 UTC

TEMPO 1313/1320 24020G30KT 3000 SHRA SCT006 SCT012TCU BKN015

Temporary

Temporary Changes expected for less than half the time period

Wind
  • 240° at 20 KTS
  • {Gusting to 30 KTS
Conditions
Rain
Cloud Levels
  • Scattered at 600' AGL
  • Scattered at 1,200' AGL
  • Broken at 1,500' AGL

Dec-13@
13:00 UTC

Dec-13 @ 13:00 UTC

Dec-13@
22:00 UTC

Dec-13 @ 22:00 UTC

TEMPO 1313/1320 24020G30KT 3000 SHRA SCT006 SCT012TCU BKN015

Temporary

Temporary Changes expected for less than half the time period

Wind
  • 240° at 15 KTS
  • {Gusting to 25 KTS
Conditions
Light Rain
Cloud Levels
  • Scattered at 800' AGL
  • Scattered at 1,500' AGL
  • Broken at 2,000' AGL